createdAt,value
2023-04-29T00:03:34.595Z,101117.91
2023-04-29T00:06:03.924Z,101049.77
2023-04-29T00:08:32.400Z,101001.51
2023-04-29T00:11:01.133Z,100950.05
2023-04-29T00:13:30.208Z,100906.24
2023-04-29T00:15:59.046Z,100860.29
2023-04-29T00:18:27.838Z,100836.24
2023-04-29T00:20:57.385Z,100827.61
2023-04-29T00:23:26.065Z,100817.88
2023-04-29T00:25:54.450Z,100798.11
2023-04-29T00:28:22.842Z,100868.30
2023-04-29T00:30:53.376Z,100936.83
2023-04-29T00:33:22.913Z,100918.00
2023-04-29T00:35:51.649Z,100886.95
2023-04-29T00:38:19.796Z,100921.79
2023-04-29T00:40:48.577Z,100894.52
2023-04-29T00:43:16.896Z,100904.95
2023-04-29T00:45:45.039Z,100898.33
2023-04-29T00:48:13.517Z,100904.64
2023-04-29T00:50:42.765Z,100909.14
2023-04-29T00:53:13.106Z,100914.17
2023-04-29T00:55:42.003Z,100933.36
2023-04-29T00:58:10.919Z,100924.72
2023-04-29T01:00:41.701Z,100926.89
2023-04-29T01:03:11.358Z,100938.71
2023-04-29T01:05:41.240Z,100936.36
2023-04-29T01:08:29.300Z,100932.78
2023-04-29T01:11:10.192Z,100949.11
2023-04-29T01:13:50.810Z,100965.81
2023-04-29T01:16:42.086Z,100966.73
2023-04-29T01:19:44.236Z,100966.05
2023-04-29T01:22:13.128Z,100965.89
2023-04-29T01:24:41.676Z,100969.29
2023-04-29T01:27:43.004Z,100983.29
2023-04-29T01:30:27.604Z,101052.04
2023-04-29T01:33:04.837Z,101167.81
2023-04-29T01:35:57.150Z,101157.62
2023-04-29T01:38:28.636Z,101118.16
2023-04-29T01:41:02.797Z,101113.14
2023-04-29T01:43:34.468Z,101129.28
2023-04-29T01:46:05.171Z,101141.63
2023-04-29T01:48:33.888Z,101125.78
2023-04-29T01:51:02.479Z,101115.16
2023-04-29T01:53:31.704Z,101106.70
2023-04-29T01:56:00.697Z,101073.64
2023-04-29T01:58:30.338Z,101044.73
2023-04-29T02:00:59.200Z,101018.04
2023-04-29T02:03:28.535Z,100986.30
2023-04-29T02:05:58.672Z,100956.92
2023-04-29T02:08:27.677Z,100941.96
2023-04-29T02:10:58.725Z,100930.60
2023-04-29T02:13:27.195Z,100935.55
2023-04-29T02:15:56.329Z,100926.80
2023-04-29T02:18:25.059Z,100905.48
2023-04-29T02:21:00.909Z,100873.26
2023-04-29T02:23:30.258Z,100829.89
2023-04-29T02:25:59.804Z,100806.54
2023-04-29T02:28:28.564Z,100782.09
2023-04-29T02:30:57.361Z,100765.04
2023-04-29T02:33:26.057Z,100732.32
2023-04-29T02:35:54.868Z,100726.14
2023-04-29T02:38:24.885Z,100729.99
2023-04-29T02:40:53.194Z,100714.60
2023-04-29T02:43:22.045Z,100699.71
2023-04-29T02:45:51.330Z,100710.92
2023-04-29T02:48:20.145Z,100681.35
2023-04-29T02:50:49.180Z,100681.11
2023-04-29T02:53:17.231Z,100694.97
2023-04-29T02:55:45.872Z,100678.95
2023-04-29T02:58:14.685Z,100662.95
2023-04-29T03:00:43.777Z,100657.11
2023-04-29T03:03:12.953Z,100692.44
2023-04-29T03:05:42.682Z,100711.55
2023-04-29T03:08:11.341Z,100690.42
2023-04-29T03:10:41.579Z,100707.27
2023-04-29T03:13:10.951Z,100725.91
2023-04-29T03:15:40.003Z,100712.84
2023-04-29T03:18:08.839Z,100692.27
2023-04-29T03:20:37.169Z,100707.66
2023-04-29T03:23:05.481Z,100750.80
2023-04-29T03:25:34.911Z,100728.23
2023-04-29T03:28:03.439Z,100725.40
2023-04-29T03:30:31.571Z,100762.45
2023-04-29T03:33:00.341Z,100747.06
2023-04-29T03:35:29.289Z,100749.02
2023-04-29T03:37:57.666Z,100757.62
2023-04-29T03:40:26.215Z,100759.95
2023-04-29T03:42:56.146Z,100735.23
2023-04-29T03:45:24.260Z,100743.47
2023-04-29T03:47:53.495Z,100742.77
2023-04-29T03:50:24.549Z,100728.10
2023-04-29T03:52:53.404Z,100733.67
2023-04-29T03:55:22.613Z,100736.02
2023-04-29T03:57:51.383Z,100740.13
2023-04-29T04:00:19.692Z,100749.46
2023-04-29T04:02:50.111Z,100766.81
2023-04-29T04:05:19.052Z,100796.34
2023-04-29T04:07:47.495Z,100791.90
2023-04-29T04:10:16.441Z,100806.56
2023-04-29T04:12:45.076Z,100814.42
2023-04-29T04:15:13.885Z,100820.31
2023-04-29T04:17:42.450Z,100833.02
2023-04-29T04:20:12.740Z,100850.67
2023-04-29T04:22:41.928Z,100858.77
2023-04-29T04:25:12.264Z,100860.92
2023-04-29T04:27:41.226Z,100865.05
2023-04-29T04:30:10.250Z,100861.33
2023-04-29T04:32:39.129Z,100855.52
2023-04-29T04:35:08.798Z,100854.53
2023-04-29T04:37:37.498Z,100862.40
2023-04-29T04:40:09.078Z,100855.06
2023-04-29T04:42:38.275Z,100844.84
2023-04-29T04:45:10.614Z,100838.56
2023-04-29T04:47:41.457Z,100828.38
2023-04-29T04:50:11.274Z,100823.94
2023-04-29T04:52:39.437Z,100815.52
2023-04-29T04:55:09.390Z,100814.10
2023-04-29T04:57:39.120Z,100804.10
2023-04-29T05:00:09.341Z,100790.70
2023-04-29T05:02:39.036Z,100788.97
2023-04-29T05:05:08.326Z,100781.67
2023-04-29T05:07:38.096Z,100784.58
2023-04-29T05:10:07.432Z,100784.98
2023-04-29T05:12:35.517Z,100781.09
2023-04-29T05:15:05.355Z,100773.25
2023-04-29T05:17:34.355Z,100765.05
2023-04-29T05:20:03.105Z,100771.52
2023-04-29T05:22:31.998Z,100772.08
2023-04-29T05:25:01.557Z,100774.77
2023-04-29T05:27:31.838Z,100777.61
2023-04-29T05:30:00.191Z,100774.37
2023-04-29T05:32:28.883Z,100771.25
2023-04-29T05:34:57.609Z,100765.79
2023-04-29T05:37:26.615Z,100763.20
2023-04-29T05:39:55.353Z,100761.15
2023-04-29T05:42:24.562Z,100753.36
2023-04-29T05:44:53.164Z,100751.67
2023-04-29T05:47:21.924Z,100753.38
2023-04-29T05:49:51.105Z,100759.70
2023-04-29T05:52:20.036Z,100769.61
2023-04-29T05:54:49.842Z,100782.72
2023-04-29T05:57:19.183Z,100777.52
2023-04-29T05:59:49.005Z,100771.17
2023-04-29T06:02:17.340Z,100781.51
2023-04-29T06:04:46.937Z,100773.52
2023-04-29T06:07:17.717Z,100773.75
2023-04-29T06:09:47.743Z,100776.66
2023-04-29T06:12:16.443Z,100778.48
2023-04-29T06:14:45.112Z,100776.61
2023-04-29T06:17:14.126Z,100777.33
2023-04-29T06:19:43.594Z,100772.77
2023-04-29T06:22:11.878Z,100774.80
2023-04-29T06:24:40.112Z,100781.85
2023-04-29T06:27:08.818Z,100784.89
2023-04-29T06:29:37.660Z,100791.05
2023-04-29T06:32:06.613Z,100800.83
2023-04-29T06:34:35.177Z,100799.56
2023-04-29T06:37:03.749Z,100797.44
2023-04-29T06:39:32.839Z,100795.49
2023-04-29T06:42:02.531Z,100816.39
2023-04-29T06:44:31.629Z,100826.10
2023-04-29T06:47:00.277Z,100822.31
2023-04-29T06:49:28.491Z,100827.23
2023-04-29T06:51:57.563Z,100830.55
2023-04-29T06:54:26.425Z,100837.95
2023-04-29T06:56:55.503Z,100833.95
2023-04-29T06:59:24.229Z,100832.42
2023-04-29T07:01:52.820Z,100836.27
2023-04-29T07:04:21.682Z,100831.44
2023-04-29T07:06:49.828Z,100823.44
2023-04-29T07:09:18.070Z,100818.69
2023-04-29T07:11:46.708Z,100827.96
2023-04-29T07:14:15.258Z,100823.86
2023-04-29T07:16:44.329Z,100822.79
2023-04-29T07:19:13.612Z,100815.63
2023-04-29T07:21:42.042Z,100817.80
2023-04-29T07:24:10.493Z,100826.38
2023-04-29T07:26:39.620Z,100836.10
2023-04-29T07:29:08.498Z,100847.52
2023-04-29T07:31:38.385Z,100858.34
2023-04-29T07:34:06.805Z,100857.02
2023-04-29T07:36:35.003Z,100861.14
2023-04-29T07:39:03.457Z,100861.35
2023-04-29T07:41:32.281Z,100860.30
2023-04-29T07:44:00.414Z,100863.87
2023-04-29T07:46:29.241Z,100867.30
2023-04-29T07:48:57.677Z,100860.02
2023-04-29T07:51:27.272Z,100857.36
2023-04-29T07:53:55.934Z,100861.08
2023-04-29T07:56:24.517Z,100862.45
2023-04-29T07:58:53.401Z,100871.35
2023-04-29T08:01:22.065Z,100871.23
2023-04-29T08:03:51.054Z,100857.73
2023-04-29T08:06:20.405Z,100853.12
2023-04-29T08:08:49.486Z,100853.50
2023-04-29T08:11:19.664Z,100853.61
2023-04-29T08:13:48.286Z,100850.50
2023-04-29T08:16:17.242Z,100849.15
2023-04-29T08:18:46.098Z,100853.91
2023-04-29T08:21:14.415Z,100856.35
2023-04-29T08:23:43.108Z,100860.14
2023-04-29T08:26:12.229Z,100858.00
2023-04-29T08:28:40.838Z,100860.48
2023-04-29T08:31:17.404Z,100861.44
2023-04-29T08:33:46.496Z,100861.17
2023-04-29T08:36:14.878Z,100854.59
2023-04-29T08:38:43.394Z,100858.05
2023-04-29T08:41:13.274Z,100851.92
2023-04-29T08:43:41.885Z,100852.17
2023-04-29T08:46:11.669Z,100846.16
2023-04-29T08:48:42.552Z,100837.85
2023-04-29T08:51:14.336Z,100838.57
2023-04-29T08:53:43.042Z,100842.96
2023-04-29T08:56:17.563Z,100844.36
2023-04-29T08:58:46.624Z,100843.24
2023-04-29T09:01:15.096Z,100850.70
2023-04-29T09:03:52.310Z,100841.69
2023-04-29T09:06:20.926Z,100833.64
2023-04-29T09:08:49.248Z,100847.52
2023-04-29T09:11:19.662Z,100859.63
2023-04-29T09:13:48.659Z,100861.16
2023-04-29T09:16:16.955Z,100866.17
2023-04-29T09:18:47.600Z,100860.05
2023-04-29T09:21:34.155Z,100861.28
2023-04-29T09:24:04.032Z,100851.09
2023-04-29T09:26:43.841Z,100857.70
2023-04-29T09:29:14.363Z,100855.17
2023-04-29T09:31:43.354Z,100852.55
2023-04-29T09:34:13.929Z,100852.19
2023-04-29T09:36:50.952Z,100841.40
2023-04-29T09:39:21.770Z,100842.66
2023-04-29T09:41:55.972Z,100835.91
2023-04-29T09:44:36.048Z,100826.98
2023-04-29T09:47:06.617Z,100823.60
2023-04-29T09:49:44.823Z,100817.81
2023-04-29T09:52:16.652Z,100820.82
2023-04-29T09:54:45.313Z,100818.31
2023-04-29T09:57:14.162Z,100813.52
2023-04-29T09:59:42.916Z,100807.40
2023-04-29T10:02:17.267Z,100804.16
2023-04-29T10:04:48.643Z,100804.58
2023-04-29T10:07:18.404Z,100802.11
2023-04-29T10:09:48.274Z,100803.55
2023-04-29T10:12:19.122Z,100805.52
2023-04-29T10:15:06.215Z,100804.94
2023-04-29T10:18:08.829Z,100805.81
2023-04-29T10:20:39.420Z,100802.09
2023-04-29T10:23:08.953Z,100808.05
2023-04-29T10:25:38.177Z,100806.00
2023-04-29T10:28:09.813Z,100804.96
2023-04-29T10:30:40.253Z,100795.44
2023-04-29T10:33:12.413Z,100795.55
2023-04-29T10:35:44.061Z,100796.08
2023-04-29T10:38:20.919Z,100798.60
2023-04-29T10:40:50.833Z,100797.12
2023-04-29T10:43:25.164Z,100791.09
2023-04-29T10:46:23.442Z,100790.15
2023-04-29T10:48:57.669Z,100786.08
2023-04-29T10:51:33.262Z,100782.61
2023-04-29T10:54:29.162Z,100773.42
2023-04-29T10:56:57.917Z,100766.78
2023-04-29T10:59:36.477Z,100766.45
2023-04-29T11:02:05.264Z,100758.67
2023-04-29T11:04:33.446Z,100748.05
2023-04-29T11:07:02.274Z,100738.67
2023-04-29T11:09:31.938Z,100738.86
2023-04-29T11:12:08.897Z,100731.43
2023-04-29T11:14:50.368Z,100725.83
2023-04-29T11:17:19.849Z,100719.08
2023-04-29T11:19:51.615Z,100719.93
2023-04-29T11:22:20.812Z,100716.23
2023-04-29T11:25:09.607Z,100714.17
2023-04-29T11:27:41.047Z,100710.72
2023-04-29T11:30:11.439Z,100708.56
2023-04-29T11:32:42.137Z,100714.33
2023-04-29T11:35:18.509Z,100716.02
2023-04-29T11:37:47.948Z,100710.16
2023-04-29T11:40:17.518Z,100706.89
2023-04-29T11:42:48.834Z,100703.14
2023-04-29T11:45:19.021Z,100696.42
2023-04-29T11:47:49.365Z,100697.59
2023-04-29T11:50:18.735Z,100690.38
2023-04-29T11:52:48.308Z,100686.84
2023-04-29T11:55:17.114Z,100690.39
2023-04-29T11:57:49.698Z,100687.54
2023-04-29T12:00:18.649Z,100682.36
2023-04-29T12:02:47.900Z,100678.34
2023-04-29T12:05:17.692Z,100677.88
2023-04-29T12:07:47.170Z,100679.98
2023-04-29T12:10:15.935Z,100671.71
2023-04-29T12:12:44.665Z,100664.00
2023-04-29T12:15:14.441Z,100660.91
2023-04-29T12:17:44.354Z,100657.55
2023-04-29T12:20:14.759Z,100656.73
2023-04-29T12:22:42.922Z,100650.51
2023-04-29T12:25:11.124Z,100651.65
2023-04-29T12:27:41.417Z,100650.15
2023-04-29T12:30:10.630Z,100640.63
2023-04-29T12:32:39.108Z,100646.04
2023-04-29T12:35:15.611Z,100651.23
2023-04-29T12:37:47.681Z,100641.79
2023-04-29T12:40:17.720Z,100631.97
2023-04-29T12:42:46.263Z,100631.81
2023-04-29T12:45:27.531Z,100633.51
2023-04-29T12:48:00.984Z,100648.19
2023-04-29T12:50:32.501Z,100654.11
2023-04-29T12:53:02.394Z,100653.19
2023-04-29T12:55:36.680Z,100640.90
2023-04-29T12:58:06.034Z,100635.15
2023-04-29T13:00:35.013Z,100638.94
2023-04-29T13:03:04.920Z,100638.81
2023-04-29T13:05:34.327Z,100631.16
2023-04-29T13:08:02.969Z,100628.70
2023-04-29T13:10:32.867Z,100633.13
2023-04-29T13:13:01.082Z,100633.11
2023-04-29T13:15:29.419Z,100627.80
2023-04-29T13:17:58.304Z,100634.20
2023-04-29T13:20:26.705Z,100627.76
2023-04-29T13:22:56.201Z,100633.47
2023-04-29T13:25:26.101Z,100629.00
2023-04-29T13:27:55.189Z,100631.53
2023-04-29T13:30:24.314Z,100629.11
2023-04-29T13:32:55.429Z,100620.55
2023-04-29T13:35:26.494Z,100616.52
2023-04-29T13:37:54.742Z,100625.05
2023-04-29T13:40:27.570Z,100631.69
2023-04-29T13:43:04.954Z,100630.48
2023-04-29T13:45:38.877Z,100641.71
2023-04-29T13:48:20.920Z,100643.38
2023-04-29T13:53:51.154Z,100640.64
2023-04-29T14:03:51.446Z,100630.33
2023-04-29T14:06:20.162Z,100625.27
2023-04-29T14:08:49.903Z,100618.10
2023-04-29T14:11:18.294Z,100603.48
2023-04-29T14:13:46.913Z,100603.45
2023-04-29T14:16:16.082Z,100591.23
2023-04-29T14:18:44.307Z,100573.26
2023-04-29T14:21:12.548Z,100550.25
2023-04-29T14:23:41.214Z,100555.30
2023-04-29T14:26:27.006Z,100576.84
2023-04-29T14:28:58.322Z,100622.75
2023-04-29T14:31:29.566Z,100619.93
2023-04-29T14:33:58.835Z,100619.59
2023-04-29T14:36:28.463Z,100610.09
2023-04-29T14:38:57.035Z,100615.81
2023-04-29T14:41:25.924Z,100620.77
2023-04-29T14:43:55.287Z,100623.75
2023-04-29T14:46:23.637Z,100611.25
2023-04-29T14:48:51.805Z,100616.52
2023-04-29T14:51:20.717Z,100615.06
2023-04-29T14:53:48.884Z,100613.09
2023-04-29T14:56:18.398Z,100608.01
2023-04-29T14:58:47.364Z,100615.52
2023-04-29T15:01:17.649Z,100618.89
2023-04-29T15:03:47.570Z,100620.05
2023-04-29T15:06:17.729Z,100627.59
2023-04-29T15:08:45.838Z,100629.09
2023-04-29T15:11:15.016Z,100632.34
2023-04-29T15:13:43.157Z,100629.21
2023-04-29T15:16:11.347Z,100626.84
2023-04-29T15:18:41.022Z,100629.80
2023-04-29T15:21:11.216Z,100628.95
2023-04-29T15:23:40.700Z,100633.12
2023-04-29T15:26:10.006Z,100636.77
2023-04-29T15:28:38.397Z,100640.15
2023-04-29T15:31:07.171Z,100633.20
2023-04-29T15:33:36.550Z,100627.80
2023-04-29T15:36:07.920Z,100625.69
2023-04-29T15:38:37.567Z,100625.64
2023-04-29T15:41:06.902Z,100631.54
2023-04-29T15:43:36.374Z,100627.48
2023-04-29T15:46:04.726Z,100630.65
2023-04-29T15:48:33.876Z,100631.63
2023-04-29T15:51:02.328Z,100623.80
2023-04-29T15:53:31.189Z,100610.38
2023-04-29T15:55:59.998Z,100598.40
2023-04-29T15:58:28.474Z,100593.39
2023-04-29T16:00:56.775Z,100589.48
2023-04-29T16:03:26.581Z,100580.82
2023-04-29T16:05:56.081Z,100570.73
2023-04-29T16:08:25.270Z,100581.06
2023-04-29T16:10:53.922Z,100589.23
2023-04-29T16:13:22.727Z,100585.20
2023-04-29T16:15:51.157Z,100564.79
2023-04-29T16:18:19.858Z,100552.20
2023-04-29T16:20:48.305Z,100540.17
2023-04-29T16:23:17.284Z,100539.75
2023-04-29T16:25:46.061Z,100554.30
2023-04-29T16:28:14.548Z,100573.27
2023-04-29T16:30:43.538Z,100578.05
2023-04-29T16:33:12.897Z,100578.39
2023-04-29T16:35:41.818Z,100579.33
2023-04-29T16:38:10.926Z,100582.73
2023-04-29T16:40:39.996Z,100583.83
2023-04-29T16:43:09.338Z,100578.68
2023-04-29T16:45:37.383Z,100580.16
2023-04-29T16:48:06.614Z,100581.04
2023-04-29T16:50:36.121Z,100576.84
2023-04-29T16:53:04.930Z,100582.94
2023-04-29T16:55:34.035Z,100569.01
2023-04-29T16:58:03.834Z,100569.44
2023-04-29T17:00:31.968Z,100571.13
2023-04-29T17:03:00.951Z,100570.55
2023-04-29T17:05:29.678Z,100575.32
2023-04-29T17:07:58.441Z,100569.88
2023-04-29T17:10:27.027Z,100571.36
2023-04-29T17:12:55.962Z,100572.41
2023-04-29T17:15:24.524Z,100568.59
2023-04-29T17:17:54.229Z,100563.33
2023-04-29T17:20:23.022Z,100566.80
2023-04-29T17:22:51.995Z,100555.73
2023-04-29T17:25:20.722Z,100554.15
2023-04-29T17:27:49.953Z,100554.42
2023-04-29T17:30:18.468Z,100542.02
2023-04-29T17:32:47.380Z,100540.58
2023-04-29T17:35:16.967Z,100538.48
2023-04-29T17:37:46.435Z,100542.46
2023-04-29T17:40:14.883Z,100547.20
2023-04-29T17:42:43.642Z,100555.71
2023-04-29T17:45:12.806Z,100561.96
2023-04-29T17:47:41.100Z,100575.88
2023-04-29T17:50:09.832Z,100580.02
2023-04-29T17:52:38.187Z,100589.45
2023-04-29T17:55:07.495Z,100589.31
2023-04-29T17:57:36.827Z,100597.23
2023-04-29T18:00:07.256Z,100606.61
2023-04-29T18:02:36.799Z,100607.20
2023-04-29T18:05:07.132Z,100608.86
2023-04-29T18:07:36.214Z,100614.64
2023-04-29T18:10:04.776Z,100611.80
2023-04-29T18:12:33.450Z,100610.02
2023-04-29T18:15:03.242Z,100607.97
2023-04-29T18:17:32.252Z,100626.48
2023-04-29T18:20:00.851Z,100636.76
2023-04-29T18:22:30.318Z,100639.61
2023-04-29T18:25:00.514Z,100649.70
2023-04-29T18:27:29.717Z,100656.62
2023-04-29T18:30:01.112Z,100668.36
2023-04-29T18:32:29.304Z,100667.86
2023-04-29T18:34:57.440Z,100676.22
2023-04-29T18:37:27.158Z,100690.29
2023-04-29T18:39:55.543Z,100686.34
2023-04-29T18:42:25.128Z,100689.89
2023-04-29T18:44:54.160Z,100692.11
2023-04-29T18:47:23.827Z,100695.97
2023-04-29T18:49:52.109Z,100704.91
2023-04-29T18:52:20.423Z,100719.95
2023-04-29T18:54:49.174Z,100750.38
2023-04-29T18:57:18.098Z,100771.63
2023-04-29T18:59:46.397Z,100800.92
2023-04-29T19:02:15.402Z,100811.91
2023-04-29T19:04:44.773Z,100816.95
2023-04-29T19:07:14.956Z,100833.11
2023-04-29T19:09:43.871Z,100832.67
2023-04-29T19:12:12.566Z,100869.50
2023-04-29T19:14:41.920Z,100879.82
2023-04-29T19:17:10.682Z,100886.59
2023-04-29T19:19:39.376Z,100908.36
2023-04-29T19:22:07.697Z,100901.31
2023-04-29T19:24:36.447Z,100917.20
2023-04-29T19:27:05.682Z,100917.43
2023-04-29T19:29:35.337Z,100931.33
2023-04-29T19:32:04.453Z,100936.06
2023-04-29T19:34:33.962Z,100941.69
2023-04-29T19:37:03.801Z,100952.54
2023-04-29T19:39:32.870Z,100946.27
2023-04-29T19:42:02.650Z,100944.93
2023-04-29T19:44:31.170Z,100961.63
2023-04-29T19:46:59.450Z,100959.85
2023-04-29T19:49:28.744Z,100964.01
2023-04-29T19:51:57.680Z,100957.80
2023-04-29T19:54:26.482Z,100953.14
2023-04-29T19:56:54.681Z,100957.07
2023-04-29T19:59:24.464Z,100960.27
2023-04-29T20:01:53.944Z,100961.81
2023-04-29T20:04:23.142Z,100962.40
2023-04-29T20:06:52.264Z,100954.92
2023-04-29T20:09:20.882Z,100946.74
2023-04-29T20:11:49.417Z,100941.98
2023-04-29T20:14:17.713Z,100943.48
2023-04-29T20:16:46.986Z,100951.39
2023-04-29T20:19:15.586Z,100963.51
2023-04-29T20:21:44.467Z,100961.99
2023-04-29T20:24:12.748Z,100959.42
2023-04-29T20:26:40.910Z,100968.02
2023-04-29T20:29:09.826Z,100968.88
2023-04-29T20:31:38.672Z,100970.16
2023-04-29T20:34:06.780Z,100970.73
2023-04-29T20:36:35.509Z,100976.02
2023-04-29T20:39:04.554Z,100980.01
2023-04-29T20:41:33.079Z,100978.23
2023-04-29T20:44:01.885Z,100984.20
2023-04-29T20:46:31.807Z,100993.75
2023-04-29T20:49:01.620Z,101001.89
2023-04-29T20:51:30.153Z,101007.30
2023-04-29T20:53:59.585Z,101008.95
2023-04-29T20:56:28.253Z,101011.90
2023-04-29T20:58:57.163Z,101016.82
2023-04-29T21:01:26.063Z,101023.21
2023-04-29T21:03:55.785Z,101023.49
2023-04-29T21:06:28.153Z,101029.12
2023-04-29T21:08:56.391Z,101032.80
2023-04-29T21:11:25.091Z,101029.95
2023-04-29T21:13:53.301Z,101030.48
2023-04-29T21:16:21.437Z,101027.48
2023-04-29T21:18:50.009Z,101030.73
2023-04-29T21:21:18.616Z,101028.40
2023-04-29T21:23:47.380Z,101029.67
2023-04-29T21:26:16.412Z,101027.55
2023-04-29T21:28:44.631Z,101028.52
2023-04-29T21:31:13.373Z,101025.89
2023-04-29T21:33:45.865Z,101024.69
2023-04-29T21:36:14.633Z,101027.61
2023-04-29T21:38:42.991Z,101036.14
2023-04-29T21:41:23.686Z,101031.52
2023-04-29T21:43:52.114Z,101031.94
2023-04-29T21:46:20.974Z,101028.73
2023-04-29T21:48:49.635Z,101034.36
2023-04-29T21:51:18.578Z,101038.91
2023-04-29T21:53:47.203Z,101042.20
2023-04-29T21:56:15.613Z,101048.11
2023-04-29T21:58:44.602Z,101051.73
2023-04-29T22:01:12.898Z,101055.77
2023-04-29T22:03:42.113Z,101060.10
2023-04-29T22:06:10.261Z,101059.43
2023-04-29T22:08:39.218Z,101063.32
2023-04-29T22:11:07.573Z,101065.72
2023-04-29T22:13:36.476Z,101061.23
2023-04-29T22:16:05.365Z,101059.60
2023-04-29T22:18:35.160Z,101057.28
2023-04-29T22:21:05.525Z,101056.51
2023-04-29T22:23:36.119Z,101054.59
2023-04-29T22:26:05.501Z,101050.35
2023-04-29T22:28:35.023Z,101043.60
2023-04-29T22:31:03.706Z,101038.47
2023-04-29T22:33:32.015Z,101040.74
2023-04-29T22:36:00.246Z,101039.23
2023-04-29T22:38:28.657Z,101037.33
2023-04-29T22:40:57.786Z,101044.55
2023-04-29T22:43:25.997Z,101043.84
2023-04-29T22:45:55.330Z,101044.90
2023-04-29T22:48:26.642Z,101043.98
2023-04-29T22:50:58.935Z,101046.31
2023-04-29T22:53:28.647Z,101043.98
2023-04-29T22:55:59.711Z,101049.88
2023-04-29T22:58:27.852Z,101051.67
2023-04-29T23:00:57.382Z,101060.83
2023-04-29T23:03:27.706Z,101058.86
2023-04-29T23:06:00.746Z,101058.67
2023-04-29T23:08:29.863Z,101064.60
2023-04-29T23:10:58.289Z,101063.15
2023-04-29T23:13:27.156Z,101066.73
2023-04-29T23:15:56.438Z,101065.46
2023-04-29T23:18:25.668Z,101065.10
2023-04-29T23:20:53.951Z,101065.64
2023-04-29T23:23:23.214Z,101060.79
2023-04-29T23:25:51.681Z,101062.73
2023-04-29T23:28:20.690Z,101059.33
2023-04-29T23:30:49.028Z,101060.21
2023-04-29T23:33:17.688Z,101054.65
2023-04-29T23:35:53.318Z,101050.51
2023-04-29T23:38:21.862Z,101050.47
2023-04-29T23:40:50.955Z,101054.77
2023-04-29T23:43:23.202Z,101056.73
2023-04-29T23:45:51.391Z,101058.89
2023-04-29T23:48:20.628Z,101057.46
2023-04-29T23:50:49.419Z,101063.55
2023-04-29T23:53:17.969Z,101061.95
2023-04-29T23:55:46.087Z,101061.05
2023-04-29T23:58:14.556Z,101057.31
